createdAt,value
2018-07-21T00:00:08.869Z,100636.97
2018-07-21T00:02:37.517Z,100637.44
2018-07-21T00:05:06.090Z,100643.75
2018-07-21T00:07:34.761Z,100642.05
2018-07-21T00:10:03.320Z,100639.99
2018-07-21T00:12:31.906Z,100642.55
2018-07-21T00:15:00.460Z,100639.02
2018-07-21T00:17:30.294Z,100641.08
2018-07-21T00:19:58.836Z,100636.39
2018-07-21T00:22:27.327Z,100644.48
2018-07-21T00:24:55.894Z,100636.17
2018-07-21T00:27:24.926Z,100633.78
2018-07-21T00:31:22.858Z,100638.68
2018-07-21T00:33:51.462Z,100635.28
2018-07-21T00:36:20.733Z,100630.99
2018-07-21T00:38:49.381Z,100631.45
2018-07-21T00:41:18.918Z,100631.62
2018-07-21T00:43:48.296Z,100638.16
2018-07-21T00:46:16.932Z,100636.40
2018-07-21T00:48:45.857Z,100630.88
2018-07-21T00:51:15.372Z,100632.41
2018-07-21T00:53:44.061Z,100626.72
2018-07-21T00:56:12.645Z,100628.48
2018-07-21T00:58:41.248Z,100631.95
2018-07-21T01:01:10.160Z,100628.09
2018-07-21T01:03:38.885Z,100624.55
2018-07-21T01:06:07.802Z,100623.02
2018-07-21T01:08:38.100Z,100621.02
2018-07-21T01:11:09.743Z,100618.70
2018-07-21T01:13:38.310Z,100616.17
2018-07-21T01:16:07.269Z,100617.16
2018-07-21T01:18:36.160Z,100620.10
2018-07-21T01:21:04.871Z,100614.80
2018-07-21T01:23:33.463Z,100610.74
2018-07-21T01:26:01.942Z,100613.36
2018-07-21T01:28:31.368Z,100603.87
2018-07-21T01:30:59.827Z,100609.56
2018-07-21T01:33:28.414Z,100590.55
2018-07-21T01:35:56.929Z,100601.81
2018-07-21T01:38:25.409Z,100594.70
2018-07-21T01:40:53.994Z,100594.25
2018-07-21T01:43:22.617Z,100589.09
2018-07-21T01:45:51.306Z,100592.87
2018-07-21T01:48:19.762Z,100587.60
2018-07-21T01:50:48.600Z,100591.62
2018-07-21T01:53:17.105Z,100586.91
2018-07-21T01:55:46.825Z,100590.53
2018-07-21T01:58:15.440Z,100583.98
2018-07-21T02:00:43.957Z,100586.40
2018-07-21T02:03:12.538Z,100589.02
2018-07-21T02:05:41.879Z,100587.75
2018-07-21T02:08:11.118Z,100587.83
2018-07-21T02:10:40.442Z,100590.66
2018-07-21T02:13:09.022Z,100589.27
2018-07-21T02:15:37.553Z,100593.80
2018-07-21T02:18:06.098Z,100586.31
2018-07-21T02:20:34.629Z,100588.56
2018-07-21T02:23:03.980Z,100585.25
2018-07-21T02:25:32.425Z,100580.55
2018-07-21T02:28:01.093Z,100581.94
2018-07-21T02:30:29.834Z,100587.68
2018-07-21T02:32:58.496Z,100584.55
2018-07-21T02:35:27.143Z,100581.55
2018-07-21T02:37:55.678Z,100578.63
2018-07-21T02:40:24.816Z,100578.75
2018-07-21T02:42:54.679Z,100578.02
2018-07-21T02:45:23.318Z,100579.41
2018-07-21T02:47:51.861Z,100568.77
2018-07-21T02:50:20.701Z,100571.88
2018-07-21T02:52:50.976Z,100569.47
2018-07-21T02:55:20.399Z,100570.59
2018-07-21T02:57:48.970Z,100572.29
2018-07-21T03:00:17.749Z,100573.66
2018-07-21T03:02:46.375Z,100573.89
2018-07-21T03:05:14.919Z,100577.02
2018-07-21T03:07:43.500Z,100583.09
2018-07-21T03:10:12.291Z,100584.48
2018-07-21T03:12:41.825Z,100582.39
2018-07-21T03:15:10.612Z,100587.22
2018-07-21T03:17:39.309Z,100587.50
2018-07-21T03:20:07.878Z,100584.19
2018-07-21T03:22:37.085Z,100579.56
2018-07-21T03:25:06.018Z,100573.19
2018-07-21T03:27:34.629Z,100571.42
2018-07-21T03:30:04.934Z,100570.97
2018-07-21T03:32:33.755Z,100573.49
2018-07-21T03:35:02.399Z,100572.19
2018-07-21T03:37:32.902Z,100572.02
2018-07-21T03:40:01.678Z,100575.48
2018-07-21T03:42:30.676Z,100573.33
2018-07-21T03:44:59.442Z,100576.08
2018-07-21T03:47:28.536Z,100574.83
2018-07-21T03:49:57.121Z,100580.96
2018-07-21T03:52:25.701Z,100580.05
2018-07-21T03:54:54.809Z,100581.76
2018-07-21T03:57:23.392Z,100585.67
2018-07-21T03:59:51.959Z,100584.83
2018-07-21T04:02:21.154Z,100583.38
2018-07-21T04:04:51.509Z,100574.30
2018-07-21T04:07:21.089Z,100574.94
2018-07-21T04:09:49.598Z,100580.56
2018-07-21T04:12:18.846Z,100579.41
2018-07-21T04:14:47.380Z,100572.87
2018-07-21T04:17:24.457Z,100573.38
2018-07-21T04:19:53.881Z,100568.56
2018-07-21T04:22:24.267Z,100570.72
2018-07-21T04:24:54.031Z,100566.46
2018-07-21T04:27:23.621Z,100562.54
2018-07-21T04:29:53.803Z,100563.09
2018-07-21T04:32:23.178Z,100563.14
2018-07-21T04:34:51.862Z,100556.72
2018-07-21T04:37:20.551Z,100563.59
2018-07-21T04:39:49.191Z,100557.83
2018-07-21T04:42:18.646Z,100553.20
2018-07-21T04:44:47.103Z,100556.97
2018-07-21T04:47:16.305Z,100559.13
2018-07-21T04:49:44.824Z,100554.16
2018-07-21T04:52:13.339Z,100561.99
2018-07-21T04:54:42.331Z,100556.17
2018-07-21T04:57:10.897Z,100557.02
2018-07-21T04:59:39.554Z,100560.09
2018-07-21T05:02:08.489Z,100563.09
2018-07-21T05:04:37.024Z,100561.09
2018-07-21T05:07:05.470Z,100560.89
2018-07-21T05:09:33.985Z,100559.77
2018-07-21T05:12:03.624Z,100556.86
2018-07-21T05:14:32.308Z,100559.27
2018-07-21T05:17:01.418Z,100561.27
2018-07-21T05:19:30.084Z,100557.81
2018-07-21T05:21:58.542Z,100563.47
2018-07-21T05:24:28.369Z,100568.17
2018-07-21T05:26:56.886Z,100571.48
2018-07-21T05:29:25.628Z,100570.63
2018-07-21T05:31:54.469Z,100576.41
2018-07-21T05:34:24.135Z,100570.42
2018-07-21T05:36:54.300Z,100580.50
2018-07-21T05:39:23.555Z,100588.38
2018-07-21T05:41:52.025Z,100588.61
2018-07-21T05:44:21.357Z,100591.91
2018-07-21T05:46:51.597Z,100591.14
2018-07-21T05:49:22.414Z,100585.98
2018-07-21T05:51:51.011Z,100583.70
2018-07-21T05:54:21.111Z,100581.77
2018-07-21T05:56:50.760Z,100580.47
2018-07-21T05:59:21.519Z,100576.62
2018-07-21T06:01:50.995Z,100577.08
2018-07-21T06:04:19.754Z,100566.61
2018-07-21T06:06:48.248Z,100565.06
2018-07-21T06:09:16.872Z,100571.12
2018-07-21T06:11:45.355Z,100571.45
2018-07-21T06:14:14.512Z,100576.00
2018-07-21T06:16:44.256Z,100577.08
2018-07-21T06:19:12.912Z,100576.78
2018-07-21T06:21:41.994Z,100583.00
2018-07-21T06:24:10.693Z,100585.62
2018-07-21T06:26:39.998Z,100588.36
2018-07-21T06:29:10.043Z,100594.68
2018-07-21T06:31:38.558Z,100596.48
2018-07-21T06:34:07.575Z,100592.62
2018-07-21T06:36:37.748Z,100599.45
2018-07-21T06:39:09.597Z,100595.71
2018-07-21T06:41:40.001Z,100597.34
2018-07-21T06:44:10.568Z,100591.44
2018-07-21T06:46:39.106Z,100600.24
2018-07-21T06:49:07.643Z,100601.89
2018-07-21T06:51:38.143Z,100595.82
2018-07-21T06:54:06.810Z,100597.59
2018-07-21T06:56:35.327Z,100598.53
2018-07-21T06:59:04.205Z,100602.32
2018-07-21T07:01:33.776Z,100606.75
2018-07-21T07:04:04.670Z,100597.38
2018-07-21T07:06:33.173Z,100597.88
2018-07-21T07:09:03.757Z,100600.55
2018-07-21T07:11:33.194Z,100603.84
2018-07-21T07:14:02.765Z,100609.23
2018-07-21T07:16:33.137Z,100605.88
2018-07-21T07:19:01.629Z,100603.47
2018-07-21T07:21:30.150Z,100606.41
2018-07-21T07:23:59.594Z,100613.01
2018-07-21T07:26:28.779Z,100613.19
2018-07-21T07:28:57.345Z,100614.71
2018-07-21T07:31:26.969Z,100619.64
2018-07-21T07:33:55.661Z,100614.04
2018-07-21T07:36:24.527Z,100612.77
2018-07-21T07:38:53.239Z,100616.94
2018-07-21T07:41:21.806Z,100620.23
2018-07-21T07:43:50.323Z,100621.29
2018-07-21T07:46:18.871Z,100618.88
2018-07-21T07:48:47.372Z,100618.48
2018-07-21T07:51:15.917Z,100616.14
2018-07-21T07:53:45.053Z,100615.30
2018-07-21T07:56:14.218Z,100603.16
2018-07-21T07:58:42.723Z,100605.32
2018-07-21T08:01:12.962Z,100608.12
2018-07-21T08:03:41.598Z,100612.92
2018-07-21T08:06:10.299Z,100606.94
2018-07-21T08:08:38.808Z,100603.09
2018-07-21T08:11:09.124Z,100601.59
2018-07-21T08:13:37.725Z,100602.65
2018-07-21T08:16:06.651Z,100602.48
2018-07-21T08:18:35.809Z,100600.17
2018-07-21T08:21:04.549Z,100596.79
2018-07-21T08:23:33.114Z,100593.20
2018-07-21T08:26:02.084Z,100591.23
2018-07-21T08:28:31.103Z,100588.49
2018-07-21T08:31:00.475Z,100588.99
2018-07-21T08:33:32.153Z,100595.37
2018-07-21T08:36:01.488Z,100592.27
2018-07-21T08:38:30.527Z,100597.98
2018-07-21T08:40:58.990Z,100602.78
2018-07-21T08:43:27.588Z,100600.16
2018-07-21T08:45:56.733Z,100601.92
2018-07-21T08:48:25.632Z,100595.60
2018-07-21T08:50:54.700Z,100594.03
2018-07-21T08:53:23.230Z,100597.39
2018-07-21T08:55:52.025Z,100593.69
2018-07-21T08:58:21.819Z,100593.92
2018-07-21T09:00:50.833Z,100587.99
2018-07-21T09:03:19.345Z,100593.61
2018-07-21T09:05:49.020Z,100592.64
2018-07-21T09:08:18.079Z,100596.84
2018-07-21T09:10:46.617Z,100592.14
2018-07-21T09:13:15.505Z,100596.43
2018-07-21T09:15:44.077Z,100582.77
2018-07-21T09:18:12.530Z,100587.69
2018-07-21T09:20:41.027Z,100585.61
2018-07-21T09:23:09.569Z,100581.09
2018-07-21T09:25:38.082Z,100580.14
2018-07-21T09:28:07.417Z,100581.00
2018-07-21T09:30:36.580Z,100578.94
2018-07-21T09:33:05.129Z,100579.16
2018-07-21T09:35:34.299Z,100577.94
2018-07-21T09:38:04.011Z,100566.34
2018-07-21T09:40:32.588Z,100564.47
2018-07-21T09:43:02.127Z,100567.34
2018-07-21T09:45:30.604Z,100565.61
2018-07-21T09:47:59.173Z,100565.61
2018-07-21T09:50:27.812Z,100565.67
2018-07-21T09:52:57.306Z,100570.96
2018-07-21T09:55:26.473Z,100564.29
2018-07-21T09:57:55.098Z,100559.21
2018-07-21T10:00:30.292Z,100558.88
2018-07-21T10:02:58.943Z,100563.33
2018-07-21T10:05:28.023Z,100565.17
2018-07-21T10:07:57.397Z,100566.78
2018-07-21T10:10:25.906Z,100564.15
2018-07-21T10:12:54.454Z,100562.83
2018-07-21T10:15:23.140Z,100560.98
2018-07-21T10:17:51.724Z,100567.98
2018-07-21T10:20:21.784Z,100567.18
2018-07-21T10:22:52.236Z,100564.54
2018-07-21T10:25:26.359Z,100561.42
2018-07-21T10:28:01.075Z,100557.97
2018-07-21T10:30:29.677Z,100556.94
2018-07-21T10:32:58.914Z,100556.97
2018-07-21T10:35:28.365Z,100556.16
2018-07-21T10:37:56.899Z,100549.79
2018-07-21T10:40:26.586Z,100553.72
2018-07-21T10:42:56.525Z,100550.39
2018-07-21T10:45:25.124Z,100546.86
2018-07-21T10:47:54.487Z,100543.51
2018-07-21T10:50:23.010Z,100537.52
2018-07-21T10:52:51.590Z,100535.20
2018-07-21T10:55:21.352Z,100532.59
2018-07-21T10:57:50.049Z,100526.38
2018-07-21T11:00:18.549Z,100528.19
2018-07-21T11:02:47.030Z,100522.45
2018-07-21T11:05:15.994Z,100513.77
2018-07-21T11:07:44.559Z,100522.34
2018-07-21T11:10:13.012Z,100521.73
2018-07-21T11:12:41.611Z,100520.08
2018-07-21T11:15:10.124Z,100516.23
2018-07-21T11:17:39.058Z,100513.30
2018-07-21T11:20:08.006Z,100515.09
2018-07-21T11:22:37.112Z,100519.55
2018-07-21T11:25:06.563Z,100518.22
2018-07-21T11:27:35.564Z,100519.06
2018-07-21T11:30:08.479Z,100520.02
2018-07-21T11:32:37.142Z,100515.32
2018-07-21T11:35:05.820Z,100519.52
2018-07-21T11:37:34.369Z,100511.91
2018-07-21T11:40:03.153Z,100518.73
2018-07-21T11:42:31.661Z,100515.34
2018-07-21T11:45:00.197Z,100512.06
2018-07-21T11:47:29.384Z,100511.32
2018-07-21T11:49:58.000Z,100510.14
2018-07-21T11:52:27.611Z,100513.02
2018-07-21T11:54:56.279Z,100504.75
2018-07-21T11:57:24.825Z,100509.04
2018-07-21T11:59:53.542Z,100508.99
2018-07-21T12:02:23.030Z,100501.41
2018-07-21T12:04:51.594Z,100499.72
2018-07-21T12:07:20.137Z,100499.62
2018-07-21T12:09:48.767Z,100503.70
2018-07-21T12:12:17.223Z,100509.20
2018-07-21T12:14:46.907Z,100507.61
2018-07-21T12:17:15.569Z,100507.17
2018-07-21T12:19:44.034Z,100510.31
2018-07-21T12:22:15.546Z,100508.19
2018-07-21T12:24:45.084Z,100505.22
2018-07-21T12:27:13.674Z,100503.55
2018-07-21T12:29:42.621Z,100501.97
2018-07-21T12:32:11.456Z,100508.25
2018-07-21T12:34:40.069Z,100507.08
2018-07-21T12:37:10.366Z,100507.56
2018-07-21T12:39:38.954Z,100506.17
2018-07-21T12:42:07.679Z,100502.34
2018-07-21T12:44:36.270Z,100503.08
2018-07-21T12:47:05.672Z,100502.60
2018-07-21T12:49:34.813Z,100503.92
2018-07-21T12:52:04.930Z,100501.64
2018-07-21T12:54:33.426Z,100501.28
2018-07-21T12:57:02.460Z,100500.55
2018-07-21T12:59:31.176Z,100499.66
2018-07-21T13:02:00.730Z,100510.14
2018-07-21T13:04:29.315Z,100508.23
2018-07-21T13:06:58.146Z,100509.92
2018-07-21T13:09:26.688Z,100502.09
2018-07-21T13:11:56.048Z,100500.73
2018-07-21T13:14:24.590Z,100500.14
2018-07-21T13:16:53.189Z,100501.57
2018-07-21T13:19:21.728Z,100500.36
2018-07-21T13:21:50.267Z,100497.23
2018-07-21T13:24:18.807Z,100494.73
2018-07-21T13:26:47.838Z,100497.38
2018-07-21T13:29:16.371Z,100498.70
2018-07-21T13:31:45.632Z,100500.63
2018-07-21T13:34:14.966Z,100499.55
2018-07-21T13:36:43.462Z,100494.37
2018-07-21T13:39:13.337Z,100495.11
2018-07-21T13:41:41.794Z,100492.72
2018-07-21T13:44:10.377Z,100494.52
2018-07-21T13:46:39.866Z,100490.22
2018-07-21T13:49:08.501Z,100488.38
2018-07-21T13:51:38.123Z,100481.88
2018-07-21T13:54:06.637Z,100480.66
2018-07-21T13:56:35.269Z,100482.83
2018-07-21T13:59:03.751Z,100477.13
2018-07-21T14:01:33.192Z,100479.04
2018-07-21T14:04:01.817Z,100472.67
2018-07-21T14:06:30.298Z,100477.23
2018-07-21T14:08:58.983Z,100473.58
2018-07-21T14:11:28.558Z,100473.14
2018-07-21T14:13:57.274Z,100466.12
2018-07-21T14:16:25.786Z,100470.11
2018-07-21T14:18:54.811Z,100469.61
2018-07-21T14:21:23.416Z,100458.81
2018-07-21T14:23:51.998Z,100454.91
2018-07-21T14:26:20.574Z,100451.23
2018-07-21T14:28:49.076Z,100454.40
2018-07-21T14:31:17.719Z,100449.81
2018-07-21T14:33:46.321Z,100451.30
2018-07-21T14:36:14.903Z,100451.09
2018-07-21T14:38:43.364Z,100451.95
2018-07-21T14:41:12.568Z,100452.65
2018-07-21T14:43:41.803Z,100447.77
2018-07-21T14:46:10.442Z,100452.73
2018-07-21T14:48:39.475Z,100455.27
2018-07-21T14:51:08.837Z,100457.17
2018-07-21T14:53:38.773Z,100457.73
2018-07-21T14:56:08.665Z,100450.18
2018-07-21T14:58:38.991Z,100455.96
2018-07-21T15:01:07.708Z,100458.49
2018-07-21T15:03:37.255Z,100456.59
2018-07-21T15:06:07.205Z,100442.86
2018-07-21T15:08:35.676Z,100452.20
2018-07-21T15:11:04.212Z,100451.64
2018-07-21T15:13:33.562Z,100452.66
2018-07-21T15:16:02.018Z,100457.17
2018-07-21T15:18:30.630Z,100458.92
2018-07-21T15:21:00.175Z,100458.25
2018-07-21T15:23:28.579Z,100455.50
2018-07-21T15:25:57.135Z,100465.88
2018-07-21T15:28:26.459Z,100455.66
2018-07-21T15:30:55.146Z,100458.67
2018-07-21T15:33:24.929Z,100452.65
2018-07-21T15:35:55.010Z,100446.61
2018-07-21T15:38:23.887Z,100450.48
2018-07-21T15:40:52.607Z,100451.09
2018-07-21T15:43:21.399Z,100453.89
2018-07-21T15:45:50.094Z,100445.05
2018-07-21T15:48:18.561Z,100447.00
2018-07-21T15:50:47.172Z,100445.72
2018-07-21T15:53:16.011Z,100447.41
2018-07-21T15:55:45.176Z,100455.50
2018-07-21T15:58:13.806Z,100445.91
2018-07-21T16:00:42.412Z,100450.61
2018-07-21T16:03:10.888Z,100443.38
2018-07-21T16:05:39.849Z,100447.08
2018-07-21T16:08:08.557Z,100443.73
2018-07-21T16:10:37.140Z,100444.69
2018-07-21T16:13:06.117Z,100440.50
2018-07-21T16:15:34.667Z,100439.30
2018-07-21T16:18:03.362Z,100443.98
2018-07-21T16:20:31.898Z,100435.83
2018-07-21T16:23:00.583Z,100444.86
2018-07-21T16:25:29.185Z,100446.19
2018-07-21T16:27:58.040Z,100447.84
2018-07-21T16:30:27.103Z,100444.98
2018-07-21T16:32:55.731Z,100441.23
2018-07-21T16:35:24.271Z,100435.80
2018-07-21T16:37:52.880Z,100435.33
2018-07-21T16:40:21.467Z,100430.63
2018-07-21T16:42:50.121Z,100428.78
2018-07-21T16:45:19.847Z,100429.64
2018-07-21T16:47:48.442Z,100429.45
2018-07-21T16:50:16.953Z,100428.25
2018-07-21T16:52:45.575Z,100421.05
2018-07-21T16:55:14.674Z,100427.94
2018-07-21T16:57:43.848Z,100420.26
2018-07-21T17:00:12.534Z,100422.06
2018-07-21T17:02:41.984Z,100420.16
2018-07-21T17:05:10.769Z,100414.13
2018-07-21T17:07:39.465Z,100420.05
2018-07-21T17:10:07.999Z,100420.19
2018-07-21T17:12:37.516Z,100419.66
2018-07-21T17:15:06.518Z,100418.96
2018-07-21T17:17:35.041Z,100427.98
2018-07-21T17:20:03.715Z,100422.59
2018-07-21T17:22:32.908Z,100421.80
2018-07-21T17:25:01.916Z,100427.59
2018-07-21T17:27:30.732Z,100433.98
2018-07-21T17:30:01.057Z,100426.42
2018-07-21T17:32:29.780Z,100428.84
2018-07-21T17:34:58.787Z,100430.17
2018-07-21T17:37:27.329Z,100430.33
2018-07-21T17:39:55.951Z,100432.64
2018-07-21T17:42:24.425Z,100437.13
2018-07-21T17:44:54.842Z,100434.81
2018-07-21T17:47:23.364Z,100438.08
2018-07-21T17:49:51.918Z,100436.65
2018-07-21T17:52:20.823Z,100435.36
2018-07-21T17:54:49.299Z,100435.02
2018-07-21T17:57:18.482Z,100435.48
2018-07-21T17:59:47.603Z,100435.88
2018-07-21T18:02:16.310Z,100437.81
2018-07-21T18:04:45.014Z,100428.55
2018-07-21T18:07:15.127Z,100428.44
2018-07-21T18:09:44.676Z,100426.52
2018-07-21T18:12:14.058Z,100429.04
2018-07-21T18:14:42.517Z,100425.77
2018-07-21T18:17:10.998Z,100427.00
2018-07-21T18:19:39.721Z,100429.86
2018-07-21T18:22:09.224Z,100431.91
2018-07-21T18:24:38.178Z,100426.86
2018-07-21T18:27:07.046Z,100425.09
2018-07-21T18:29:35.628Z,100428.30
2018-07-21T18:32:04.304Z,100430.58
2018-07-21T18:34:33.778Z,100431.80
2018-07-21T18:37:03.524Z,100431.20
2018-07-21T18:39:32.028Z,100443.56
2018-07-21T18:42:00.576Z,100434.78
2018-07-21T18:44:29.037Z,100439.12
2018-07-21T18:46:58.174Z,100441.39
2018-07-21T18:49:26.633Z,100443.42
2018-07-21T18:51:55.117Z,100441.36
2018-07-21T18:54:24.455Z,100448.58
2018-07-21T18:56:53.131Z,100446.41
2018-07-21T18:59:21.831Z,100451.32
2018-07-21T19:01:52.013Z,100451.22
2018-07-21T19:04:21.240Z,100442.93
2018-07-21T19:06:49.899Z,100445.81
2018-07-21T19:09:18.305Z,100447.81
2018-07-21T19:11:50.972Z,100446.09
2018-07-21T19:14:20.516Z,100451.03
2018-07-21T19:16:49.084Z,100450.52
2018-07-21T19:19:18.970Z,100450.15
2018-07-21T19:21:47.646Z,100463.58
2018-07-21T19:24:16.229Z,100463.55
2018-07-21T19:26:49.879Z,100464.11
2018-07-21T19:29:19.191Z,100467.22
2018-07-21T19:31:53.117Z,100472.72
2018-07-21T19:34:21.645Z,100471.02
2018-07-21T19:36:50.131Z,100470.03
2018-07-21T19:39:18.688Z,100477.56
2018-07-21T19:41:52.805Z,100477.33
2018-07-21T19:44:21.312Z,100482.89
2018-07-21T19:46:50.326Z,100480.02
2018-07-21T19:49:19.498Z,100485.05
2018-07-21T19:51:48.075Z,100491.02
2018-07-21T19:54:16.774Z,100488.10
2018-07-21T19:56:46.485Z,100487.95
2018-07-21T19:59:15.245Z,100486.39
2018-07-21T20:01:43.860Z,100487.47
2018-07-21T20:04:14.576Z,100485.00
2018-07-21T20:06:44.072Z,100493.28
2018-07-21T20:09:12.960Z,100494.92
2018-07-21T20:11:42.961Z,100497.87
2018-07-21T20:14:12.675Z,100499.07
2018-07-21T20:16:41.775Z,100504.75
2018-07-21T20:19:10.414Z,100506.98
2018-07-21T20:21:39.632Z,100512.97
2018-07-21T20:24:08.500Z,100519.49
2018-07-21T20:26:37.020Z,100525.79
2018-07-21T20:29:05.460Z,100524.15
2018-07-21T20:31:34.122Z,100522.80
2018-07-21T20:34:02.727Z,100524.03
2018-07-21T20:36:31.209Z,100522.55
2018-07-21T20:39:00.072Z,100526.46
2018-07-21T20:41:28.727Z,100526.30
2018-07-21T20:43:57.328Z,100524.98
2018-07-21T20:46:25.750Z,100523.07
2018-07-21T20:48:55.203Z,100526.17
2018-07-21T20:51:24.466Z,100526.39
2018-07-21T20:53:52.998Z,100522.27
2018-07-21T20:56:23.138Z,100530.38
2018-07-21T20:58:51.766Z,100528.34
2018-07-21T21:01:20.334Z,100528.42
2018-07-21T21:03:50.245Z,100529.38
2018-07-21T21:06:18.781Z,100529.79
2018-07-21T21:08:47.451Z,100536.54
2018-07-21T21:11:16.127Z,100537.94
2018-07-21T21:13:47.957Z,100529.88
2018-07-21T21:16:16.587Z,100532.25
2018-07-21T21:18:45.509Z,100533.39
2018-07-21T21:21:13.981Z,100530.50
2018-07-21T21:23:45.566Z,100530.06
2018-07-21T21:26:14.185Z,100533.08
2018-07-21T21:28:43.668Z,100528.95
2018-07-21T21:31:12.690Z,100529.25
2018-07-21T21:33:41.338Z,100532.34
2018-07-21T21:36:09.978Z,100526.16
2018-07-21T21:38:39.114Z,100529.63
2018-07-21T21:41:09.088Z,100525.98
2018-07-21T21:43:37.589Z,100528.98
2018-07-21T21:46:06.590Z,100522.70
2018-07-21T21:48:35.107Z,100524.57
2018-07-21T21:51:03.593Z,100527.41
2018-07-21T21:53:32.210Z,100514.87
2018-07-21T21:56:00.658Z,100520.03
2018-07-21T21:58:29.199Z,100519.56
2018-07-21T22:01:13.038Z,100532.32
2018-07-21T22:03:41.702Z,100530.73
2018-07-21T22:06:10.293Z,100527.06
2018-07-21T22:08:39.848Z,100533.75
2018-07-21T22:11:09.811Z,100534.50
2018-07-21T22:13:38.500Z,100537.71
2018-07-21T22:16:07.455Z,100538.37
2018-07-21T22:18:35.977Z,100529.38
2018-07-21T22:21:05.028Z,100533.48
2018-07-21T22:23:34.371Z,100535.56
2018-07-21T22:26:05.095Z,100538.46
2018-07-21T22:28:33.751Z,100535.19
2018-07-21T22:31:02.456Z,100542.03
2018-07-21T22:33:31.368Z,100545.63
2018-07-21T22:35:59.886Z,100541.50
2018-07-21T22:38:29.210Z,100543.01
2018-07-21T22:40:58.217Z,100544.88
2018-07-21T22:43:26.755Z,100551.45
2018-07-21T22:45:55.257Z,100551.91
2018-07-21T22:48:24.310Z,100556.98
2018-07-21T22:50:52.799Z,100556.31
2018-07-21T22:53:21.305Z,100554.78
2018-07-21T22:55:49.926Z,100553.96
2018-07-21T22:58:18.417Z,100550.10
2018-07-21T23:00:47.061Z,100548.67
2018-07-21T23:03:15.784Z,100554.95
2018-07-21T23:05:45.117Z,100554.02
2018-07-21T23:08:14.458Z,100552.51
2018-07-21T23:10:43.267Z,100557.48
2018-07-21T23:13:13.346Z,100563.38
2018-07-21T23:15:43.794Z,100565.78
2018-07-21T23:18:13.027Z,100563.14
2018-07-21T23:20:41.611Z,100561.63
2018-07-21T23:23:11.769Z,100556.17
2018-07-21T23:25:40.869Z,100561.03
2018-07-21T23:28:09.493Z,100555.71
2018-07-21T23:30:38.390Z,100550.54
2018-07-21T23:33:08.163Z,100554.73
2018-07-21T23:35:36.674Z,100555.69
2018-07-21T23:38:05.267Z,100554.11
2018-07-21T23:40:33.859Z,100557.59
2018-07-21T23:43:02.321Z,100555.88
2018-07-21T23:45:30.777Z,100565.06
2018-07-21T23:47:59.505Z,100557.84
2018-07-21T23:50:28.434Z,100563.30
2018-07-21T23:52:57.104Z,100562.63
2018-07-21T23:55:25.759Z,100566.28
2018-07-21T23:57:55.515Z,100565.81
